createdAt,value
2019-02-27T00:00:47.750Z,75.20
2019-02-27T00:03:17.487Z,73.02
2019-02-27T00:05:46.276Z,69.50
2019-02-27T00:08:14.794Z,73.00
2019-02-27T00:10:43.311Z,66.47
2019-02-27T00:13:11.820Z,71.47
2019-02-27T00:15:40.331Z,72.22
2019-02-27T00:18:08.779Z,68.22
2019-02-27T00:20:37.742Z,74.37
2019-02-27T00:23:06.383Z,73.30
2019-02-27T00:25:36.106Z,66.28
2019-02-27T00:28:05.461Z,72.82
2019-02-27T00:30:37.932Z,71.57
2019-02-27T00:33:04.280Z,74.07
2019-02-27T00:35:32.752Z,72.40
2019-02-27T00:38:01.220Z,78.92
2019-02-27T00:40:29.664Z,79.37
2019-02-27T00:42:58.139Z,84.58
2019-02-27T00:45:47.444Z,85.77
2019-02-27T00:48:16.646Z,85.57
2019-02-27T00:50:45.083Z,80.67
2019-02-27T00:53:13.524Z,77.37
2019-02-27T00:55:42.676Z,77.95
2019-02-27T00:58:11.116Z,73.80
2019-02-27T01:00:40.013Z,75.42
2019-02-27T01:03:08.485Z,75.97
2019-02-27T01:05:40.947Z,73.05
2019-02-27T01:08:07.103Z,77.03
2019-02-27T01:10:35.748Z,75.60
2019-02-27T01:13:04.360Z,67.58
2019-02-27T01:15:32.935Z,76.40
2019-02-27T01:18:01.412Z,71.25
2019-02-27T01:20:29.896Z,75.20
2019-02-27T01:22:58.411Z,70.75
2019-02-27T01:25:26.871Z,68.90
2019-02-27T01:27:55.326Z,78.97
2019-02-27T01:30:24.420Z,73.80
2019-02-27T01:32:53.421Z,74.30
2019-02-27T01:35:21.868Z,77.53
2019-02-27T01:37:50.312Z,75.42
2019-02-27T01:40:18.794Z,74.67
2019-02-27T01:42:47.311Z,74.05
2019-02-27T01:45:20.760Z,80.32
2019-02-27T01:47:46.919Z,76.70
2019-02-27T01:50:27.150Z,75.45
2019-02-27T01:52:55.623Z,79.25
2019-02-27T01:55:24.074Z,76.72
2019-02-27T01:57:52.519Z,75.22
2019-02-27T02:00:23.281Z,75.95
2019-02-27T02:02:51.239Z,82.45
2019-02-27T02:05:20.100Z,77.40
2019-02-27T02:07:48.999Z,77.97
2019-02-27T02:10:17.961Z,78.70
2019-02-27T02:12:49.952Z,77.27
2019-02-27T02:15:27.283Z,79.45
2019-02-27T02:18:26.356Z,72.12
2019-02-27T02:21:00.887Z,72.45
2019-02-27T02:23:59.278Z,76.67
2019-02-27T02:26:45.751Z,73.35
2019-02-27T02:29:22.947Z,78.35
2019-02-27T02:32:03.536Z,79.17
2019-02-27T02:34:43.421Z,77.80
2019-02-27T02:37:50.801Z,74.50
2019-02-27T02:40:37.281Z,75.30
2019-02-27T02:43:23.091Z,74.67
2019-02-27T02:46:00.370Z,78.22
2019-02-27T02:48:55.484Z,76.40
2019-02-27T02:51:32.920Z,71.82
2019-02-27T02:54:10.187Z,71.02
2019-02-27T02:56:47.680Z,77.42
2019-02-27T02:59:48.265Z,78.33
2019-02-27T03:02:37.637Z,75.30
2019-02-27T03:05:23.299Z,74.65
2019-02-27T03:08:00.256Z,74.92
2019-02-27T03:10:49.586Z,67.47
2019-02-27T03:13:24.181Z,70.05
2019-02-27T03:16:07.602Z,80.75
2019-02-27T03:18:48.449Z,71.17
2019-02-27T03:21:19.997Z,75.97
2019-02-27T03:24:06.650Z,77.78
2019-02-27T03:26:54.631Z,80.17
2019-02-27T03:29:31.756Z,77.58
2019-02-27T03:32:24.130Z,77.17
2019-02-27T03:34:58.682Z,78.95
2019-02-27T03:37:32.820Z,75.55
2019-02-27T03:40:20.873Z,78.45
2019-02-27T03:43:14.011Z,75.85
2019-02-27T03:46:07.628Z,76.97
2019-02-27T03:48:47.810Z,76.35
2019-02-27T03:51:28.115Z,71.70
2019-02-27T03:54:30.092Z,77.53
2019-02-27T03:57:20.499Z,74.07
2019-02-27T04:00:03.957Z,79.80
2019-02-27T04:02:47.428Z,77.32
2019-02-27T04:05:30.617Z,81.78
2019-02-27T04:08:21.608Z,74.55
2019-02-27T04:10:50.082Z,76.55
2019-02-27T04:13:18.531Z,78.10
2019-02-27T04:15:46.988Z,71.40
2019-02-27T04:18:14.456Z,78.97
2019-02-27T04:20:43.046Z,79.55
2019-02-27T04:23:12.711Z,74.42
2019-02-27T04:25:41.438Z,78.05
2019-02-27T04:28:09.876Z,74.35
2019-02-27T04:30:38.318Z,72.75
2019-02-27T04:33:06.788Z,75.85
2019-02-27T04:35:39.203Z,80.53
2019-02-27T04:38:05.403Z,78.37
2019-02-27T04:40:33.869Z,80.20
2019-02-27T04:43:02.312Z,67.62
2019-02-27T04:45:30.747Z,69.07
2019-02-27T04:47:59.225Z,71.12
2019-02-27T04:50:27.668Z,70.45
2019-02-27T04:52:58.028Z,70.30
2019-02-27T04:55:26.296Z,68.87
2019-02-27T04:57:54.811Z,75.65
2019-02-27T05:00:29.415Z,70.05
2019-02-27T05:02:57.963Z,73.90
2019-02-27T05:05:26.416Z,68.47
2019-02-27T05:07:54.949Z,72.92
2019-02-27T05:10:23.453Z,69.90
2019-02-27T05:12:51.899Z,72.70
2019-02-27T05:15:20.348Z,72.17
2019-02-27T05:17:48.809Z,68.95
2019-02-27T05:20:17.248Z,74.45
2019-02-27T05:22:45.689Z,73.17
2019-02-27T05:25:15.052Z,73.70
2019-02-27T05:27:43.687Z,75.08
2019-02-27T05:30:12.964Z,70.47
2019-02-27T05:32:41.452Z,77.82
2019-02-27T05:35:10.036Z,74.35
2019-02-27T05:37:39.333Z,74.47
2019-02-27T05:40:10.376Z,73.85
2019-02-27T05:42:39.566Z,76.35
2019-02-27T05:45:11.243Z,78.87
2019-02-27T05:47:44.853Z,72.55
2019-02-27T05:50:12.003Z,78.60
2019-02-27T05:52:40.483Z,71.20
2019-02-27T05:55:09.125Z,73.15
2019-02-27T05:57:37.636Z,77.22
2019-02-27T06:00:09.621Z,78.78
2019-02-27T06:02:38.206Z,72.17
2019-02-27T06:05:07.096Z,74.37
2019-02-27T06:07:35.553Z,69.30
2019-02-27T06:10:06.649Z,78.45
2019-02-27T06:15:03.552Z,78.50
2019-02-27T06:17:42.923Z,73.92
2019-02-27T06:20:02.197Z,81.73
2019-02-27T06:22:31.100Z,80.62
2019-02-27T06:24:59.691Z,73.17
2019-02-27T06:27:28.136Z,76.20
2019-02-27T06:29:57.040Z,76.77
2019-02-27T06:32:26.119Z,73.25
2019-02-27T06:34:54.567Z,80.12
2019-02-27T06:37:23.017Z,76.12
2019-02-27T06:39:51.483Z,80.30
2019-02-27T06:42:19.962Z,74.12
2019-02-27T06:44:48.459Z,82.02
2019-02-27T06:47:16.932Z,74.35
2019-02-27T06:49:45.384Z,74.50
2019-02-27T06:52:13.833Z,77.87
2019-02-27T06:54:42.303Z,79.07
2019-02-27T06:57:10.762Z,74.35
2019-02-27T06:59:39.197Z,78.05
2019-02-27T07:02:07.679Z,72.12
2019-02-27T07:04:39.208Z,78.62
2019-02-27T07:07:06.289Z,82.10
2019-02-27T07:09:34.769Z,82.88
2019-02-27T07:12:03.218Z,80.53
2019-02-27T07:14:31.672Z,83.20
2019-02-27T07:17:00.158Z,77.67
2019-02-27T07:19:28.600Z,83.85
2019-02-27T07:21:57.052Z,80.32
2019-02-27T07:24:25.597Z,84.92
2019-02-27T07:26:54.041Z,84.00
2019-02-27T07:29:27.271Z,80.92
2019-02-27T07:31:52.750Z,81.40
2019-02-27T07:34:21.231Z,84.45
2019-02-27T07:36:49.672Z,76.20
2019-02-27T07:39:18.148Z,76.85
2019-02-27T07:41:46.597Z,77.05
2019-02-27T07:44:15.075Z,75.90
2019-02-27T07:46:43.531Z,75.28
2019-02-27T07:49:11.976Z,80.53
2019-02-27T07:51:40.416Z,79.80
2019-02-27T07:54:08.891Z,75.67
2019-02-27T07:56:37.328Z,83.78
2019-02-27T07:59:05.784Z,76.67
2019-02-27T08:01:43.233Z,76.92
2019-02-27T08:04:04.454Z,77.57
2019-02-27T08:06:35.065Z,73.50
2019-02-27T08:09:03.581Z,81.20
2019-02-27T08:11:32.046Z,70.42
2019-02-27T08:14:00.761Z,77.60
2019-02-27T08:16:30.688Z,71.60
2019-02-27T08:19:00.573Z,75.83
2019-02-27T08:21:29.105Z,75.78
2019-02-27T08:23:57.583Z,71.33
2019-02-27T08:26:26.039Z,70.47
2019-02-27T08:28:54.477Z,71.85
2019-02-27T08:31:27.904Z,69.00
2019-02-27T08:33:53.235Z,72.92
2019-02-27T08:36:21.696Z,71.42
2019-02-27T08:38:50.165Z,69.37
2019-02-27T08:41:18.616Z,70.85
2019-02-27T08:43:47.132Z,64.62
2019-02-27T08:46:15.599Z,70.22
2019-02-27T08:48:44.037Z,71.15
2019-02-27T08:51:12.483Z,68.55
2019-02-27T08:53:40.949Z,64.95
2019-02-27T08:56:09.947Z,67.72
2019-02-27T08:58:39.560Z,66.00
2019-02-27T09:01:10.279Z,60.20
2019-02-27T09:03:38.715Z,61.90
2019-02-27T09:06:07.328Z,62.08
2019-02-27T09:08:35.823Z,61.13
2019-02-27T09:11:06.660Z,59.35
2019-02-27T09:13:34.507Z,63.25
2019-02-27T09:16:02.974Z,59.30
2019-02-27T09:18:33.422Z,60.08
2019-02-27T09:21:01.590Z,57.27
2019-02-27T09:23:30.069Z,59.77
2019-02-27T09:26:02.491Z,62.62
2019-02-27T09:28:28.695Z,60.63
2019-02-27T09:30:57.243Z,56.85
2019-02-27T09:33:25.688Z,58.00
2019-02-27T09:35:55.135Z,52.65
2019-02-27T09:38:24.334Z,52.50
2019-02-27T09:40:53.430Z,50.00
2019-02-27T09:43:24.197Z,52.27
2019-02-27T09:45:52.122Z,51.83
2019-02-27T09:48:20.635Z,48.23
2019-02-27T09:50:49.204Z,51.20
2019-02-27T09:53:17.914Z,54.55
2019-02-27T09:55:46.444Z,50.17
2019-02-27T09:58:15.029Z,46.98
2019-02-27T10:00:48.404Z,52.25
2019-02-27T10:03:20.049Z,48.50
2019-02-27T10:05:47.848Z,49.85
2019-02-27T10:08:16.647Z,49.38
2019-02-27T10:10:46.077Z,51.20
2019-02-27T10:13:14.664Z,53.55
2019-02-27T10:15:43.212Z,51.05
2019-02-27T10:18:11.677Z,53.87
2019-02-27T10:20:40.179Z,56.28
2019-02-27T10:23:08.715Z,57.00
2019-02-27T10:25:37.175Z,57.03
2019-02-27T10:28:05.952Z,56.30
2019-02-27T10:30:34.709Z,61.63
2019-02-27T10:33:03.615Z,62.30
2019-02-27T10:35:53.141Z,53.80
2019-02-27T10:38:33.635Z,58.68
2019-02-27T10:41:02.104Z,54.45
2019-02-27T10:43:30.563Z,52.20
2019-02-27T10:45:59.006Z,48.35
2019-02-27T10:48:27.656Z,51.13
2019-02-27T10:50:56.251Z,45.33
2019-02-27T10:53:27.204Z,51.35
2019-02-27T10:55:56.115Z,50.28
2019-02-27T10:58:24.783Z,47.58
2019-02-27T11:00:53.456Z,45.05
2019-02-27T11:03:23.694Z,46.08
2019-02-27T11:05:55.355Z,43.23
2019-02-27T11:08:22.748Z,45.85
2019-02-27T11:10:51.221Z,77.87
2019-02-27T11:13:19.680Z,49.75
2019-02-27T11:15:48.137Z,51.18
2019-02-27T11:18:16.624Z,75.62
2019-02-27T11:20:45.081Z,43.33
2019-02-27T11:23:13.527Z,47.62
2019-02-27T11:25:42.016Z,47.95
2019-02-27T11:28:10.463Z,50.08
2019-02-27T11:30:41.221Z,48.42
2019-02-27T11:35:37.663Z,58.30
2019-02-27T11:38:06.298Z,56.02
2019-02-27T11:40:42.634Z,60.95
2019-02-27T11:43:10.691Z,53.35
2019-02-27T11:45:39.146Z,64.95
2019-02-27T11:48:07.611Z,63.60
2019-02-27T11:50:36.136Z,55.12
2019-02-27T11:53:04.751Z,58.17
2019-02-27T11:55:33.218Z,52.15
2019-02-27T11:58:04.386Z,52.67
2019-02-27T12:00:33.771Z,56.00
2019-02-27T12:03:02.280Z,60.75
2019-02-27T12:05:34.071Z,56.02
2019-02-27T12:08:01.169Z,59.58
2019-02-27T12:10:31.740Z,57.35
2019-02-27T12:15:30.186Z,56.20
2019-02-27T12:18:00.398Z,56.92
2019-02-27T12:20:29.085Z,54.83
2019-02-27T12:22:57.536Z,55.63
2019-02-27T12:25:28.958Z,56.23
2019-02-27T12:27:56.992Z,60.70
2019-02-27T12:30:30.159Z,55.92
2019-02-27T12:32:58.725Z,57.20
2019-02-27T12:35:34.536Z,57.58
2019-02-27T12:38:07.209Z,56.70
2019-02-27T12:40:34.028Z,57.25
2019-02-27T12:43:02.481Z,63.10
2019-02-27T12:45:32.092Z,62.90
2019-02-27T12:48:00.793Z,66.70
2019-02-27T12:50:31.434Z,64.75
2019-02-27T12:53:00.285Z,65.10
2019-02-27T12:55:28.966Z,66.37
2019-02-27T12:57:57.415Z,58.05
2019-02-27T13:00:34.053Z,63.75
2019-02-27T13:03:02.554Z,59.33
2019-02-27T13:05:31.067Z,58.68
2019-02-27T13:07:59.607Z,55.58
2019-02-27T13:10:33.119Z,57.25
2019-02-27T13:12:58.767Z,63.00
2019-02-27T13:15:28.371Z,55.38
2019-02-27T13:17:57.944Z,60.92
2019-02-27T13:20:29.111Z,58.38
2019-02-27T13:25:25.397Z,60.60
2019-02-27T13:27:53.915Z,56.33
2019-02-27T13:30:23.980Z,55.90
2019-02-27T13:32:52.768Z,56.40
2019-02-27T13:35:22.964Z,63.92
2019-02-27T13:37:52.023Z,60.10
2019-02-27T13:40:23.004Z,60.20
2019-02-27T13:42:53.463Z,61.98
2019-02-27T13:45:25.260Z,61.05
2019-02-27T13:47:53.689Z,61.45
2019-02-27T13:50:25.673Z,54.65
2019-02-27T13:52:52.664Z,61.35
2019-02-27T13:55:22.501Z,61.35
2019-02-27T13:57:51.042Z,59.08
2019-02-27T14:00:27.339Z,64.47
2019-02-27T14:02:55.988Z,60.65
2019-02-27T14:05:24.576Z,59.45
2019-02-27T14:07:57.128Z,64.72
2019-02-27T14:10:28.956Z,64.35
2019-02-27T14:12:57.648Z,53.35
2019-02-27T14:15:45.456Z,54.93
2019-02-27T14:18:16.156Z,55.30
2019-02-27T14:20:44.318Z,57.93
2019-02-27T14:23:14.552Z,55.88
2019-02-27T14:25:42.968Z,51.25
2019-02-27T14:28:11.581Z,47.58
2019-02-27T14:30:46.027Z,48.33
2019-02-27T14:33:14.554Z,44.67
2019-02-27T14:35:43.056Z,48.60
2019-02-27T14:38:11.557Z,47.73
2019-02-27T14:40:41.190Z,44.40
2019-02-27T14:43:09.937Z,51.30
2019-02-27T14:45:40.694Z,49.48
2019-02-27T14:48:08.674Z,59.58
2019-02-27T14:50:37.128Z,58.90
2019-02-27T14:53:05.854Z,53.25
2019-02-27T14:55:36.053Z,65.83
2019-02-27T14:58:04.615Z,54.65
2019-02-27T15:00:40.324Z,49.23
2019-02-27T15:03:07.579Z,45.25
2019-02-27T15:05:37.053Z,46.42
2019-02-27T15:08:06.374Z,47.58
2019-02-27T15:10:34.839Z,46.73
2019-02-27T15:13:03.288Z,53.45
2019-02-27T15:15:32.612Z,44.98
2019-02-27T15:18:01.237Z,46.70
2019-02-27T15:20:30.476Z,48.90
2019-02-27T15:22:59.020Z,44.03
2019-02-27T15:25:27.935Z,45.67
2019-02-27T15:27:58.762Z,49.93
2019-02-27T15:30:32.302Z,47.43
2019-02-27T15:33:03.842Z,48.63
2019-02-27T15:35:30.980Z,49.73
2019-02-27T15:37:59.695Z,42.83
2019-02-27T15:40:31.212Z,49.30
2019-02-27T15:42:59.681Z,50.67
2019-02-27T15:45:29.016Z,47.38
2019-02-27T15:47:57.531Z,51.58
2019-02-27T15:50:33.834Z,42.85
2019-02-27T15:53:02.275Z,42.30
2019-02-27T15:55:34.356Z,43.92
2019-02-27T15:58:01.013Z,46.08
2019-02-27T16:00:29.623Z,46.00
2019-02-27T16:02:58.127Z,47.90
2019-02-27T16:05:30.009Z,46.88
2019-02-27T16:07:56.808Z,42.23
2019-02-27T16:10:26.848Z,40.83
2019-02-27T16:13:00.015Z,40.88
2019-02-27T16:15:25.780Z,38.45
2019-02-27T16:17:54.243Z,49.73
2019-02-27T16:20:25.197Z,41.18
2019-02-27T16:22:53.715Z,41.75
2019-02-27T16:25:26.324Z,43.60
2019-02-27T16:27:54.881Z,40.30
2019-02-27T16:30:31.080Z,42.17
2019-02-27T16:32:56.606Z,44.15
2019-02-27T16:35:25.411Z,37.58
2019-02-27T16:37:57.654Z,42.50
2019-02-27T16:40:25.365Z,42.05
2019-02-27T16:42:53.981Z,44.48
2019-02-27T16:45:39.532Z,39.70
2019-02-27T16:48:08.050Z,45.20
2019-02-27T16:50:36.512Z,43.95
2019-02-27T16:53:05.033Z,39.80
2019-02-27T16:55:37.039Z,40.88
2019-02-27T16:58:03.845Z,43.08
2019-02-27T17:00:37.992Z,40.98
2019-02-27T17:03:06.563Z,39.80
2019-02-27T17:05:35.055Z,42.90
2019-02-27T17:08:03.521Z,44.00
2019-02-27T17:10:34.207Z,41.53
2019-02-27T17:13:02.724Z,44.05
2019-02-27T17:15:34.654Z,39.05
2019-02-27T17:18:01.593Z,36.20
2019-02-27T17:20:30.215Z,38.35
2019-02-27T17:22:58.657Z,45.73
2019-02-27T17:25:30.005Z,39.45
2019-02-27T17:27:57.447Z,47.70
2019-02-27T17:30:28.618Z,48.58
2019-02-27T17:32:57.100Z,46.53
2019-02-27T17:35:25.543Z,50.08
2019-02-27T17:37:54.063Z,39.48
2019-02-27T17:40:22.714Z,45.43
2019-02-27T17:42:53.447Z,44.25
2019-02-27T17:45:23.638Z,43.25
2019-02-27T17:47:52.198Z,44.50
2019-02-27T17:50:20.801Z,40.80
2019-02-27T17:52:49.772Z,44.10
2019-02-27T17:55:19.327Z,43.28
2019-02-27T17:57:48.218Z,41.75
2019-02-27T18:00:39.267Z,44.63
2019-02-27T18:03:07.862Z,45.40
2019-02-27T18:05:36.466Z,45.05
2019-02-27T18:08:05.085Z,48.08
2019-02-27T18:10:37.079Z,50.03
2019-02-27T18:13:04.211Z,50.05
2019-02-27T18:15:32.832Z,50.63
2019-02-27T18:18:01.302Z,56.02
2019-02-27T18:20:31.889Z,60.03
2019-02-27T18:23:00.242Z,61.15
2019-02-27T18:25:28.864Z,59.63
2019-02-27T18:27:59.612Z,57.83
2019-02-27T18:30:27.720Z,53.87
2019-02-27T18:32:56.273Z,55.03
2019-02-27T18:35:28.544Z,60.63
2019-02-27T18:37:55.094Z,62.05
2019-02-27T18:40:23.755Z,59.60
2019-02-27T18:42:55.437Z,60.58
2019-02-27T18:45:48.137Z,62.85
2019-02-27T18:48:17.564Z,54.58
2019-02-27T18:50:46.017Z,59.30
2019-02-27T18:53:14.679Z,51.20
2019-02-27T18:55:44.117Z,56.75
2019-02-27T18:58:12.846Z,55.38
2019-02-27T19:00:41.455Z,59.13
2019-02-27T19:03:11.549Z,57.30
2019-02-27T19:05:42.104Z,58.67
2019-02-27T19:08:10.929Z,54.15
2019-02-27T19:10:42.408Z,60.30
2019-02-27T19:13:09.642Z,60.60
2019-02-27T19:15:38.554Z,54.48
2019-02-27T19:18:07.425Z,58.85
2019-02-27T19:20:56.269Z,61.95
2019-02-27T19:23:25.918Z,63.38
2019-02-27T19:26:13.823Z,66.82
2019-02-27T19:28:42.340Z,62.48
2019-02-27T19:31:13.576Z,59.50
2019-02-27T19:33:41.225Z,61.48
2019-02-27T19:36:18.713Z,58.73
2019-02-27T19:38:40.108Z,63.83
2019-02-27T19:41:08.676Z,55.43
2019-02-27T19:43:37.192Z,59.30
2019-02-27T19:46:06.940Z,55.55
2019-02-27T19:48:35.945Z,60.03
2019-02-27T19:51:04.651Z,48.83
2019-02-27T19:53:33.239Z,50.03
2019-02-27T19:56:01.882Z,53.92
2019-02-27T19:58:30.381Z,54.85
2019-02-27T20:00:58.988Z,53.30
2019-02-27T20:03:29.348Z,54.08
2019-02-27T20:05:59.473Z,54.73
2019-02-27T20:08:28.175Z,61.37
2019-02-27T20:10:56.869Z,55.48
2019-02-27T20:13:28.104Z,60.85
2019-02-27T20:15:55.738Z,62.80
2019-02-27T20:18:24.222Z,63.20
2019-02-27T20:20:52.953Z,60.10
2019-02-27T20:23:21.537Z,63.85
2019-02-27T20:25:50.128Z,67.72
2019-02-27T20:28:18.672Z,63.08
2019-02-27T20:30:47.453Z,63.40
2019-02-27T20:33:15.937Z,58.25
2019-02-27T20:35:44.379Z,63.40
2019-02-27T20:38:16.100Z,62.88
2019-02-27T20:40:43.329Z,66.22
2019-02-27T20:43:11.772Z,61.02
2019-02-27T20:45:42.778Z,60.88
2019-02-27T20:48:10.588Z,64.55
2019-02-27T20:51:13.126Z,68.57
2019-02-27T20:53:41.748Z,63.52
2019-02-27T20:56:10.436Z,69.35
2019-02-27T20:59:01.947Z,74.12
2019-02-27T21:01:30.054Z,70.70
2019-02-27T21:04:02.325Z,68.10
2019-02-27T21:06:28.859Z,72.30
2019-02-27T21:08:57.317Z,67.12
2019-02-27T21:11:29.583Z,71.15
2019-02-27T21:13:56.041Z,71.17
2019-02-27T21:16:24.555Z,68.33
2019-02-27T21:18:53.004Z,68.05
2019-02-27T21:21:21.512Z,72.17
2019-02-27T21:23:49.992Z,68.87
2019-02-27T21:26:19.986Z,67.12
2019-02-27T21:28:58.205Z,72.17
2019-02-27T21:31:18.982Z,77.10
2019-02-27T21:33:47.422Z,71.65
2019-02-27T21:36:15.920Z,71.45
2019-02-27T21:38:47.528Z,76.12
2019-02-27T21:41:14.591Z,73.35
2019-02-27T21:43:43.064Z,70.95
2019-02-27T21:46:13.122Z,72.65
2019-02-27T21:48:41.563Z,72.10
2019-02-27T21:51:11.025Z,72.35
2019-02-27T21:53:40.212Z,65.87
2019-02-27T21:56:08.659Z,70.40
2019-02-27T21:58:37.381Z,71.77
2019-02-27T22:01:05.965Z,73.40
2019-02-27T22:03:35.280Z,76.07
2019-02-27T22:06:04.762Z,73.92
2019-02-27T22:08:36.140Z,72.60
2019-02-27T22:11:03.435Z,77.17
2019-02-27T22:13:32.374Z,84.00
2019-02-27T22:16:00.879Z,79.10
2019-02-27T22:18:29.326Z,75.57
2019-02-27T22:20:59.680Z,78.12
2019-02-27T22:23:28.419Z,82.08
2019-02-27T22:25:57.004Z,75.17
2019-02-27T22:28:25.467Z,80.40
2019-02-27T22:30:54.125Z,79.70
2019-02-27T22:33:23.190Z,75.80
2019-02-27T22:35:51.805Z,70.37
2019-02-27T22:38:20.248Z,75.85
2019-02-27T22:40:48.695Z,78.07
2019-02-27T22:43:21.508Z,72.05
2019-02-27T22:45:47.364Z,77.15
2019-02-27T22:48:15.888Z,73.20
2019-02-27T22:50:44.372Z,71.10
2019-02-27T22:53:12.825Z,78.20
2019-02-27T22:55:42.225Z,74.58
2019-02-27T22:58:11.540Z,71.72
2019-02-27T23:03:50.667Z,77.72
2019-02-27T23:06:19.389Z,77.75
2019-02-27T23:08:47.971Z,75.55
2019-02-27T23:11:16.696Z,75.45
2019-02-27T23:13:47.428Z,79.95
2019-02-27T23:16:17.235Z,78.78
2019-02-27T23:18:45.853Z,80.80
2019-02-27T23:21:14.367Z,82.95
2019-02-27T23:23:42.807Z,79.77
2019-02-27T23:26:11.474Z,76.90
2019-02-27T23:28:39.998Z,78.75
2019-02-27T23:31:08.512Z,87.30
2019-02-27T23:33:36.999Z,88.00
2019-02-27T23:36:05.516Z,81.53
2019-02-27T23:38:34.658Z,85.65
2019-02-27T23:41:04.483Z,84.47
2019-02-27T23:43:33.907Z,79.53
2019-02-27T23:46:03.785Z,86.92
2019-02-27T23:48:35.849Z,83.80
2019-02-27T23:51:02.448Z,93.78
2019-02-27T23:53:30.961Z,84.22
2019-02-27T23:55:59.500Z,88.65
2019-02-27T23:58:29.540Z,82.97
